sensor_id;sensor_type;location;lat;lon;timestamp;P1;durP1;ratioP1;P2;durP2;ratioP2
57800;SDS011;43627;42.728;23.256;2022-10-17T00:00:06;17.40;;;7.85;;
57800;SDS011;43627;42.728;23.256;2022-10-17T00:02:33;13.27;;;7.90;;
57800;SDS011;43627;42.728;23.256;2022-10-17T00:05:00;18.10;;;9.80;;
57800;SDS011;43627;42.728;23.256;2022-10-17T00:07:26;17.90;;;8.73;;
57800;SDS011;43627;42.728;23.256;2022-10-17T00:09:54;11.85;;;7.82;;
57800;SDS011;43627;42.728;23.256;2022-10-17T00:12:20;19.08;;;8.73;;
57800;SDS011;43627;42.728;23.256;2022-10-17T00:14:47;16.02;;;8.73;;
57800;SDS011;43627;42.728;23.256;2022-10-17T00:17:14;16.90;;;8.65;;
57800;SDS011;43627;42.728;23.256;2022-10-17T00:19:41;16.52;;;7.68;;
57800;SDS011;43627;42.728;23.256;2022-10-17T00:22:08;14.77;;;7.93;;
57800;SDS011;43627;42.728;23.256;2022-10-17T00:24:35;20.05;;;9.27;;
57800;SDS011;43627;42.728;23.256;2022-10-17T00:27:01;18.83;;;9.00;;
57800;SDS011;43627;42.728;23.256;2022-10-17T00:29:28;16.75;;;8.85;;
57800;SDS011;43627;42.728;23.256;2022-10-17T00:31:55;23.08;;;10.90;;
57800;SDS011;43627;42.728;23.256;2022-10-17T00:34:23;23.83;;;12.30;;
57800;SDS011;43627;42.728;23.256;2022-10-17T00:36:50;24.00;;;13.50;;
57800;SDS011;43627;42.728;23.256;2022-10-17T00:39:17;24.58;;;13.50;;
57800;SDS011;43627;42.728;23.256;2022-10-17T00:41:43;26.75;;;14.00;;
57800;SDS011;43627;42.728;23.256;2022-10-17T00:46:55;26.13;;;13.52;;
57800;SDS011;43627;42.728;23.256;2022-10-17T00:51:56;27.58;;;14.82;;
57800;SDS011;43627;42.728;23.256;2022-10-17T00:54:30;31.33;;;15.07;;
57800;SDS011;43627;42.728;23.256;2022-10-17T00:57:00;31.50;;;15.35;;
57800;SDS011;43627;42.728;23.256;2022-10-17T00:59:28;27.85;;;14.65;;
57800;SDS011;43627;42.728;23.256;2022-10-17T01:01:59;30.98;;;14.80;;
57800;SDS011;43627;42.728;23.256;2022-10-17T01:04:30;27.75;;;15.20;;
57800;SDS011;43627;42.728;23.256;2022-10-17T01:06:57;28.70;;;15.65;;
57800;SDS011;43627;42.728;23.256;2022-10-17T01:09:23;29.05;;;14.38;;
57800;SDS011;43627;42.728;23.256;2022-10-17T01:18:03;30.48;;;14.52;;
57800;SDS011;43627;42.728;23.256;2022-10-17T01:29:46;24.23;;;14.30;;
57800;SDS011;43627;42.728;23.256;2022-10-17T01:46:19;27.88;;;14.65;;
57800;SDS011;43627;42.728;23.256;2022-10-17T01:48:50;28.13;;;14.55;;
57800;SDS011;43627;42.728;23.256;2022-10-17T01:51:20;24.73;;;12.80;;
57800;SDS011;43627;42.728;23.256;2022-10-17T01:53:53;21.95;;;10.63;;
57800;SDS011;43627;42.728;23.256;2022-10-17T01:56:26;22.92;;;11.93;;
57800;SDS011;43627;42.728;23.256;2022-10-17T01:58:57;22.27;;;10.32;;
57800;SDS011;43627;42.728;23.256;2022-10-17T02:01:28;24.48;;;12.95;;
57800;SDS011;43627;42.728;23.256;2022-10-17T02:03:57;29.33;;;10.38;;
57800;SDS011;43627;42.728;23.256;2022-10-17T02:06:25;17.05;;;10.98;;
57800;SDS011;43627;42.728;23.256;2022-10-17T02:08:52;16.27;;;10.63;;
57800;SDS011;43627;42.728;23.256;2022-10-17T02:11:23;19.52;;;11.80;;
57800;SDS011;43627;42.728;23.256;2022-10-17T02:16:56;22.75;;;11.52;;
57800;SDS011;43627;42.728;23.256;2022-10-17T02:22:39;23.52;;;11.55;;
57800;SDS011;43627;42.728;23.256;2022-10-17T02:25:15;19.17;;;10.90;;
57800;SDS011;43627;42.728;23.256;2022-10-17T02:30:38;17.90;;;9.15;;
57800;SDS011;43627;42.728;23.256;2022-10-17T02:33:11;15.65;;;8.15;;
57800;SDS011;43627;42.728;23.256;2022-10-17T02:35:45;17.63;;;7.78;;
57800;SDS011;43627;42.728;23.256;2022-10-17T02:38:15;14.57;;;7.55;;
57800;SDS011;43627;42.728;23.256;2022-10-17T02:40:44;15.82;;;9.18;;
57800;SDS011;43627;42.728;23.256;2022-10-17T02:43:12;20.27;;;11.10;;
57800;SDS011;43627;42.728;23.256;2022-10-17T02:45:40;15.93;;;8.48;;
57800;SDS011;43627;42.728;23.256;2022-10-17T02:48:08;20.35;;;10.30;;
57800;SDS011;43627;42.728;23.256;2022-10-17T02:53:09;16.13;;;9.05;;
57800;SDS011;43627;42.728;23.256;2022-10-17T02:55:46;20.02;;;9.52;;
57800;SDS011;43627;42.728;23.256;2022-10-17T02:58:20;23.42;;;11.57;;
57800;SDS011;43627;42.728;23.256;2022-10-17T03:00:52;20.00;;;10.82;;
57800;SDS011;43627;42.728;23.256;2022-10-17T03:05:45;18.38;;;9.68;;
57800;SDS011;43627;42.728;23.256;2022-10-17T03:08:12;19.10;;;9.57;;
57800;SDS011;43627;42.728;23.256;2022-10-17T03:10:39;19.73;;;10.90;;
57800;SDS011;43627;42.728;23.256;2022-10-17T03:13:05;20.05;;;9.48;;
57800;SDS011;43627;42.728;23.256;2022-10-17T03:15:32;25.75;;;11.23;;
57800;SDS011;43627;42.728;23.256;2022-10-17T03:17:59;23.95;;;11.52;;
57800;SDS011;43627;42.728;23.256;2022-10-17T03:20:26;17.33;;;8.95;;
57800;SDS011;43627;42.728;23.256;2022-10-17T03:22:52;22.38;;;10.20;;
57800;SDS011;43627;42.728;23.256;2022-10-17T03:25:19;20.00;;;9.10;;
57800;SDS011;43627;42.728;23.256;2022-10-17T03:27:46;16.60;;;9.77;;
57800;SDS011;43627;42.728;23.256;2022-10-17T03:30:12;18.90;;;10.60;;
57800;SDS011;43627;42.728;23.256;2022-10-17T03:32:39;18.17;;;10.65;;
57800;SDS011;43627;42.728;23.256;2022-10-17T03:35:06;21.70;;;12.20;;
57800;SDS011;43627;42.728;23.256;2022-10-17T03:37:40;22.45;;;10.65;;
57800;SDS011;43627;42.728;23.256;2022-10-17T03:40:06;23.80;;;12.10;;
57800;SDS011;43627;42.728;23.256;2022-10-17T03:42:33;24.75;;;11.25;;
57800;SDS011;43627;42.728;23.256;2022-10-17T03:45:00;21.42;;;10.75;;
57800;SDS011;43627;42.728;23.256;2022-10-17T03:47:27;29.73;;;12.30;;
57800;SDS011;43627;42.728;23.256;2022-10-17T03:49:54;25.23;;;12.65;;
57800;SDS011;43627;42.728;23.256;2022-10-17T03:52:21;31.48;;;12.15;;
57800;SDS011;43627;42.728;23.256;2022-10-17T03:54:48;27.02;;;12.25;;
57800;SDS011;43627;42.728;23.256;2022-10-17T03:57:16;24.67;;;11.90;;
57800;SDS011;43627;42.728;23.256;2022-10-17T03:59:44;26.55;;;14.05;;
57800;SDS011;43627;42.728;23.256;2022-10-17T04:02:11;33.40;;;15.63;;
57800;SDS011;43627;42.728;23.256;2022-10-17T04:04:38;46.17;;;22.60;;
57800;SDS011;43627;42.728;23.256;2022-10-17T04:07:05;43.47;;;23.63;;
57800;SDS011;43627;42.728;23.256;2022-10-17T04:09:31;36.03;;;18.98;;
57800;SDS011;43627;42.728;23.256;2022-10-17T04:11:58;28.77;;;15.82;;
57800;SDS011;43627;42.728;23.256;2022-10-17T04:14:25;24.75;;;15.80;;
57800;SDS011;43627;42.728;23.256;2022-10-17T04:16:52;33.03;;;15.68;;
57800;SDS011;43627;42.728;23.256;2022-10-17T04:19:19;30.85;;;16.73;;
57800;SDS011;43627;42.728;23.256;2022-10-17T04:21:46;31.92;;;16.33;;
57800;SDS011;43627;42.728;23.256;2022-10-17T04:24:13;30.70;;;13.95;;
57800;SDS011;43627;42.728;23.256;2022-10-17T04:26:40;25.20;;;13.27;;
57800;SDS011;43627;42.728;23.256;2022-10-17T04:29:06;26.58;;;12.68;;
57800;SDS011;43627;42.728;23.256;2022-10-17T04:31:33;23.38;;;12.93;;
57800;SDS011;43627;42.728;23.256;2022-10-17T04:34:00;24.83;;;13.43;;
57800;SDS011;43627;42.728;23.256;2022-10-17T04:36:27;26.25;;;13.60;;
57800;SDS011;43627;42.728;23.256;2022-10-17T04:38:53;23.35;;;12.32;;
57800;SDS011;43627;42.728;23.256;2022-10-17T04:41:21;28.65;;;12.35;;
57800;SDS011;43627;42.728;23.256;2022-10-17T04:43:47;76.30;;;37.42;;
57800;SDS011;43627;42.728;23.256;2022-10-17T04:46:16;53.22;;;25.48;;
57800;SDS011;43627;42.728;23.256;2022-10-17T04:48:43;40.35;;;22.08;;
57800;SDS011;43627;42.728;23.256;2022-10-17T04:51:11;35.40;;;18.05;;
57800;SDS011;43627;42.728;23.256;2022-10-17T04:53:40;35.97;;;17.05;;
57800;SDS011;43627;42.728;23.256;2022-10-17T04:56:13;59.97;;;20.17;;
57800;SDS011;43627;42.728;23.256;2022-10-17T04:58:42;39.72;;;18.75;;
57800;SDS011;43627;42.728;23.256;2022-10-17T05:01:11;53.47;;;21.02;;
57800;SDS011;43627;42.728;23.256;2022-10-17T05:03:41;46.53;;;21.38;;
57800;SDS011;43627;42.728;23.256;2022-10-17T05:06:11;37.83;;;17.35;;
57800;SDS011;43627;42.728;23.256;2022-10-17T05:11:23;43.42;;;18.67;;
57800;SDS011;43627;42.728;23.256;2022-10-17T05:13:52;31.85;;;14.02;;
57800;SDS011;43627;42.728;23.256;2022-10-17T05:16:20;32.45;;;14.30;;
57800;SDS011;43627;42.728;23.256;2022-10-17T05:18:48;39.75;;;13.13;;
57800;SDS011;43627;42.728;23.256;2022-10-17T05:21:18;38.80;;;13.00;;
57800;SDS011;43627;42.728;23.256;2022-10-17T05:23:45;32.78;;;13.27;;
57800;SDS011;43627;42.728;23.256;2022-10-17T05:26:12;31.17;;;14.32;;
57800;SDS011;43627;42.728;23.256;2022-10-17T05:28:39;35.58;;;14.43;;
57800;SDS011;43627;42.728;23.256;2022-10-17T05:31:06;35.40;;;13.65;;
57800;SDS011;43627;42.728;23.256;2022-10-17T05:33:34;31.55;;;13.85;;
57800;SDS011;43627;42.728;23.256;2022-10-17T05:36:02;25.40;;;12.25;;
57800;SDS011;43627;42.728;23.256;2022-10-17T05:38:29;31.67;;;12.07;;
57800;SDS011;43627;42.728;23.256;2022-10-17T05:40:57;34.25;;;11.32;;
57800;SDS011;43627;42.728;23.256;2022-10-17T05:43:25;17.20;;;9.77;;
57800;SDS011;43627;42.728;23.256;2022-10-17T05:45:52;19.58;;;8.40;;
57800;SDS011;43627;42.728;23.256;2022-10-17T05:48:20;21.38;;;8.65;;
57800;SDS011;43627;42.728;23.256;2022-10-17T05:50:47;21.95;;;10.88;;
57800;SDS011;43627;42.728;23.256;2022-10-17T05:53:14;21.02;;;7.93;;
57800;SDS011;43627;42.728;23.256;2022-10-17T05:55:42;23.40;;;8.18;;
57800;SDS011;43627;42.728;23.256;2022-10-17T05:58:08;23.67;;;8.98;;
57800;SDS011;43627;42.728;23.256;2022-10-17T06:00:47;15.38;;;8.23;;
57800;SDS011;43627;42.728;23.256;2022-10-17T06:03:14;31.77;;;9.98;;
57800;SDS011;43627;42.728;23.256;2022-10-17T06:05:41;26.65;;;9.80;;
57800;SDS011;43627;42.728;23.256;2022-10-17T06:08:08;27.48;;;9.60;;
57800;SDS011;43627;42.728;23.256;2022-10-17T06:10:34;29.17;;;10.82;;
57800;SDS011;43627;42.728;23.256;2022-10-17T06:13:01;31.25;;;10.65;;
57800;SDS011;43627;42.728;23.256;2022-10-17T06:15:28;23.75;;;9.27;;
57800;SDS011;43627;42.728;23.256;2022-10-17T06:17:54;27.25;;;10.30;;
57800;SDS011;43627;42.728;23.256;2022-10-17T06:20:21;47.10;;;10.45;;
57800;SDS011;43627;42.728;23.256;2022-10-17T06:22:48;16.02;;;8.48;;
57800;SDS011;43627;42.728;23.256;2022-10-17T06:25:14;18.10;;;8.48;;
57800;SDS011;43627;42.728;23.256;2022-10-17T06:27:41;20.27;;;8.48;;
57800;SDS011;43627;42.728;23.256;2022-10-17T06:30:08;21.85;;;9.43;;
57800;SDS011;43627;42.728;23.256;2022-10-17T06:32:35;23.52;;;9.02;;
57800;SDS011;43627;42.728;23.256;2022-10-17T06:35:02;14.30;;;7.90;;
57800;SDS011;43627;42.728;23.256;2022-10-17T06:37:32;14.90;;;6.93;;
57800;SDS011;43627;42.728;23.256;2022-10-17T06:40:02;20.83;;;7.85;;
57800;SDS011;43627;42.728;23.256;2022-10-17T06:42:29;22.42;;;7.47;;
57800;SDS011;43627;42.728;23.256;2022-10-17T06:44:56;24.75;;;7.72;;
57800;SDS011;43627;42.728;23.256;2022-10-17T06:47:23;15.45;;;7.40;;
57800;SDS011;43627;42.728;23.256;2022-10-17T06:49:49;23.35;;;8.00;;
57800;SDS011;43627;42.728;23.256;2022-10-17T06:52:16;19.83;;;9.63;;
57800;SDS011;43627;42.728;23.256;2022-10-17T06:54:43;21.80;;;9.05;;
57800;SDS011;43627;42.728;23.256;2022-10-17T06:57:10;14.68;;;9.45;;
57800;SDS011;43627;42.728;23.256;2022-10-17T06:59:36;16.15;;;8.88;;
57800;SDS011;43627;42.728;23.256;2022-10-17T07:02:03;19.73;;;9.10;;
57800;SDS011;43627;42.728;23.256;2022-10-17T07:04:31;20.05;;;8.20;;
57800;SDS011;43627;42.728;23.256;2022-10-17T07:06:58;20.75;;;9.57;;
57800;SDS011;43627;42.728;23.256;2022-10-17T07:09:28;20.80;;;9.80;;
57800;SDS011;43627;42.728;23.256;2022-10-17T07:11:56;24.02;;;8.88;;
57800;SDS011;43627;42.728;23.256;2022-10-17T07:14:23;19.10;;;9.98;;
57800;SDS011;43627;42.728;23.256;2022-10-17T07:16:57;18.17;;;8.57;;
57800;SDS011;43627;42.728;23.256;2022-10-17T07:19:24;15.20;;;8.50;;
57800;SDS011;43627;42.728;23.256;2022-10-17T07:21:52;17.95;;;8.88;;
57800;SDS011;43627;42.728;23.256;2022-10-17T07:24:19;18.10;;;9.25;;
57800;SDS011;43627;42.728;23.256;2022-10-17T07:26:46;14.23;;;8.77;;
57800;SDS011;43627;42.728;23.256;2022-10-17T07:29:13;17.65;;;9.70;;
57800;SDS011;43627;42.728;23.256;2022-10-17T07:31:40;20.20;;;9.40;;
57800;SDS011;43627;42.728;23.256;2022-10-17T07:34:06;23.15;;;8.55;;
57800;SDS011;43627;42.728;23.256;2022-10-17T07:36:33;17.27;;;9.57;;
57800;SDS011;43627;42.728;23.256;2022-10-17T07:39:00;17.00;;;9.10;;
57800;SDS011;43627;42.728;23.256;2022-10-17T07:41:26;18.88;;;8.80;;
57800;SDS011;43627;42.728;23.256;2022-10-17T07:43:53;22.88;;;9.77;;
57800;SDS011;43627;42.728;23.256;2022-10-17T07:46:21;20.20;;;10.70;;
57800;SDS011;43627;42.728;23.256;2022-10-17T07:48:47;19.55;;;8.57;;
57800;SDS011;43627;42.728;23.256;2022-10-17T07:51:14;18.83;;;9.60;;
57800;SDS011;43627;42.728;23.256;2022-10-17T07:53:41;23.90;;;8.63;;
57800;SDS011;43627;42.728;23.256;2022-10-17T07:56:14;24.13;;;9.90;;
57800;SDS011;43627;42.728;23.256;2022-10-17T07:58:41;20.92;;;10.65;;
57800;SDS011;43627;42.728;23.256;2022-10-17T08:01:08;28.98;;;9.88;;
57800;SDS011;43627;42.728;23.256;2022-10-17T08:03:42;18.70;;;9.60;;
57800;SDS011;43627;42.728;23.256;2022-10-17T08:06:10;19.00;;;9.10;;
57800;SDS011;43627;42.728;23.256;2022-10-17T08:08:37;17.23;;;9.80;;
57800;SDS011;43627;42.728;23.256;2022-10-17T08:11:05;17.08;;;9.55;;
57800;SDS011;43627;42.728;23.256;2022-10-17T08:13:34;22.35;;;10.40;;
57800;SDS011;43627;42.728;23.256;2022-10-17T08:16:03;21.98;;;10.25;;
57800;SDS011;43627;42.728;23.256;2022-10-17T08:18:33;21.85;;;10.43;;
57800;SDS011;43627;42.728;23.256;2022-10-17T08:21:02;17.90;;;10.32;;
57800;SDS011;43627;42.728;23.256;2022-10-17T08:23:34;21.08;;;10.63;;
57800;SDS011;43627;42.728;23.256;2022-10-17T08:26:02;25.17;;;10.25;;
57800;SDS011;43627;42.728;23.256;2022-10-17T08:28:33;25.00;;;10.68;;
57800;SDS011;43627;42.728;23.256;2022-10-17T08:31:10;26.00;;;11.80;;
57800;SDS011;43627;42.728;23.256;2022-10-17T08:33:39;22.35;;;11.93;;
57800;SDS011;43627;42.728;23.256;2022-10-17T08:36:08;19.15;;;10.30;;
57800;SDS011;43627;42.728;23.256;2022-10-17T08:38:38;16.45;;;10.40;;
57800;SDS011;43627;42.728;23.256;2022-10-17T08:41:21;24.10;;;11.88;;
57800;SDS011;43627;42.728;23.256;2022-10-17T08:46:44;28.52;;;9.65;;
57800;SDS011;43627;42.728;23.256;2022-10-17T08:49:22;21.80;;;10.25;;
57800;SDS011;43627;42.728;23.256;2022-10-17T08:52:05;18.73;;;9.50;;
57800;SDS011;43627;42.728;23.256;2022-10-17T08:54:40;14.55;;;8.65;;
57800;SDS011;43627;42.728;23.256;2022-10-17T08:57:14;13.32;;;8.25;;
57800;SDS011;43627;42.728;23.256;2022-10-17T08:59:42;20.92;;;9.52;;
57800;SDS011;43627;42.728;23.256;2022-10-17T09:02:27;14.48;;;8.23;;
57800;SDS011;43627;42.728;23.256;2022-10-17T09:13:54;11.25;;;6.22;;
57800;SDS011;43627;42.728;23.256;2022-10-17T09:19:10;14.60;;;6.53;;
57800;SDS011;43627;42.728;23.256;2022-10-17T09:24:15;11.55;;;6.40;;
57800;SDS011;43627;42.728;23.256;2022-10-17T09:26:50;11.13;;;5.47;;
57800;SDS011;43627;42.728;23.256;2022-10-17T09:29:20;16.65;;;6.57;;
57800;SDS011;43627;42.728;23.256;2022-10-17T09:31:59;12.93;;;6.03;;
57800;SDS011;43627;42.728;23.256;2022-10-17T09:34:31;9.32;;;4.68;;
57800;SDS011;43627;42.728;23.256;2022-10-17T09:36:58;8.48;;;4.50;;
57800;SDS011;43627;42.728;23.256;2022-10-17T09:39:27;18.05;;;5.25;;
57800;SDS011;43627;42.728;23.256;2022-10-17T09:41:58;11.23;;;5.28;;
57800;SDS011;43627;42.728;23.256;2022-10-17T09:44:31;7.22;;;4.50;;
57800;SDS011;43627;42.728;23.256;2022-10-17T09:49:55;10.32;;;5.10;;
57800;SDS011;43627;42.728;23.256;2022-10-17T09:52:29;11.77;;;4.50;;
57800;SDS011;43627;42.728;23.256;2022-10-17T09:55:03;15.63;;;3.72;;
57800;SDS011;43627;42.728;23.256;2022-10-17T09:57:49;8.32;;;4.53;;
57800;SDS011;43627;42.728;23.256;2022-10-17T10:00:20;11.98;;;4.00;;
57800;SDS011;43627;42.728;23.256;2022-10-17T10:02:49;11.07;;;3.45;;
57800;SDS011;43627;42.728;23.256;2022-10-17T10:05:17;10.88;;;3.97;;
57800;SDS011;43627;42.728;23.256;2022-10-17T10:10:39;16.42;;;4.45;;
57800;SDS011;43627;42.728;23.256;2022-10-17T10:15:39;15.00;;;3.78;;
57800;SDS011;43627;42.728;23.256;2022-10-17T10:23:36;6.63;;;3.17;;
57800;SDS011;43627;42.728;23.256;2022-10-17T10:28:59;6.30;;;2.70;;
57800;SDS011;43627;42.728;23.256;2022-10-17T10:31:36;6.07;;;2.97;;
57800;SDS011;43627;42.728;23.256;2022-10-17T10:34:43;6.68;;;2.45;;
57800;SDS011;43627;42.728;23.256;2022-10-17T10:39:35;5.55;;;1.70;;
57800;SDS011;43627;42.728;23.256;2022-10-17T10:42:31;3.85;;;2.08;;
57800;SDS011;43627;42.728;23.256;2022-10-17T10:45:21;10.77;;;1.48;;
57800;SDS011;43627;42.728;23.256;2022-10-17T10:50:51;3.72;;;2.17;;
57800;SDS011;43627;42.728;23.256;2022-10-17T11:01:19;7.18;;;2.65;;
57800;SDS011;43627;42.728;23.256;2022-10-17T11:03:56;5.05;;;2.15;;
57800;SDS011;43627;42.728;23.256;2022-10-17T11:06:33;8.70;;;2.70;;
57800;SDS011;43627;42.728;23.256;2022-10-17T11:11:42;3.85;;;2.30;;
57800;SDS011;43627;42.728;23.256;2022-10-17T11:14:48;4.40;;;2.25;;
57800;SDS011;43627;42.728;23.256;2022-10-17T11:20:20;5.72;;;2.50;;
57800;SDS011;43627;42.728;23.256;2022-10-17T11:23:09;5.00;;;1.90;;
57800;SDS011;43627;42.728;23.256;2022-10-17T11:25:45;5.10;;;1.92;;
57800;SDS011;43627;42.728;23.256;2022-10-17T11:28:16;3.20;;;1.77;;
57800;SDS011;43627;42.728;23.256;2022-10-17T11:33:37;6.95;;;2.20;;
57800;SDS011;43627;42.728;23.256;2022-10-17T11:36:31;4.97;;;2.78;;
57800;SDS011;43627;42.728;23.256;2022-10-17T11:39:13;3.05;;;2.10;;
57800;SDS011;43627;42.728;23.256;2022-10-17T11:41:47;5.10;;;2.30;;
57800;SDS011;43627;42.728;23.256;2022-10-17T11:44:36;9.57;;;2.30;;
57800;SDS011;43627;42.728;23.256;2022-10-17T11:50:17;5.25;;;2.10;;
57800;SDS011;43627;42.728;23.256;2022-10-17T11:53:13;5.35;;;2.03;;
57800;SDS011;43627;42.728;23.256;2022-10-17T11:55:42;7.40;;;1.83;;
57800;SDS011;43627;42.728;23.256;2022-10-17T11:58:14;4.57;;;2.00;;
57800;SDS011;43627;42.728;23.256;2022-10-17T12:03:32;4.70;;;2.08;;
57800;SDS011;43627;42.728;23.256;2022-10-17T12:09:39;3.15;;;2.20;;
57800;SDS011;43627;42.728;23.256;2022-10-17T12:12:22;4.43;;;2.03;;
57800;SDS011;43627;42.728;23.256;2022-10-17T12:14:52;2.65;;;1.77;;
57800;SDS011;43627;42.728;23.256;2022-10-17T12:20:15;2.67;;;1.90;;
57800;SDS011;43627;42.728;23.256;2022-10-17T12:22:46;3.45;;;1.98;;
57800;SDS011;43627;42.728;23.256;2022-10-17T12:25:20;5.22;;;2.33;;
57800;SDS011;43627;42.728;23.256;2022-10-17T12:28:00;5.55;;;1.98;;
57800;SDS011;43627;42.728;23.256;2022-10-17T12:30:31;3.78;;;2.28;;
57800;SDS011;43627;42.728;23.256;2022-10-17T12:33:00;3.55;;;2.40;;
57800;SDS011;43627;42.728;23.256;2022-10-17T12:35:33;2.60;;;1.90;;
57800;SDS011;43627;42.728;23.256;2022-10-17T12:45:50;11.10;;;2.40;;
57800;SDS011;43627;42.728;23.256;2022-10-17T12:51:08;10.25;;;2.20;;
57800;SDS011;43627;42.728;23.256;2022-10-17T12:54:01;5.22;;;2.10;;
57800;SDS011;43627;42.728;23.256;2022-10-17T12:56:46;2.83;;;1.98;;
57800;SDS011;43627;42.728;23.256;2022-10-17T12:59:23;2.95;;;1.83;;
57800;SDS011;43627;42.728;23.256;2022-10-17T13:01:52;5.35;;;1.65;;
57800;SDS011;43627;42.728;23.256;2022-10-17T13:04:21;5.80;;;1.90;;
57800;SDS011;43627;42.728;23.256;2022-10-17T13:06:52;3.25;;;1.80;;
57800;SDS011;43627;42.728;23.256;2022-10-17T13:09:28;5.93;;;1.98;;
57800;SDS011;43627;42.728;23.256;2022-10-17T13:11:59;8.10;;;1.90;;
57800;SDS011;43627;42.728;23.256;2022-10-17T13:14:28;6.40;;;1.90;;
57800;SDS011;43627;42.728;23.256;2022-10-17T13:17:01;2.25;;;1.73;;
57800;SDS011;43627;42.728;23.256;2022-10-17T13:19:40;6.18;;;1.98;;
57800;SDS011;43627;42.728;23.256;2022-10-17T13:22:10;4.32;;;1.88;;
57800;SDS011;43627;42.728;23.256;2022-10-17T13:24:41;3.42;;;1.83;;
57800;SDS011;43627;42.728;23.256;2022-10-17T13:33:16;5.45;;;1.90;;
57800;SDS011;43627;42.728;23.256;2022-10-17T13:35:52;3.35;;;1.98;;
57800;SDS011;43627;42.728;23.256;2022-10-17T13:38:26;5.95;;;1.88;;
57800;SDS011;43627;42.728;23.256;2022-10-17T13:40:55;4.28;;;2.17;;
57800;SDS011;43627;42.728;23.256;2022-10-17T13:43:42;3.55;;;1.80;;
57800;SDS011;43627;42.728;23.256;2022-10-17T13:46:16;5.93;;;1.73;;
57800;SDS011;43627;42.728;23.256;2022-10-17T13:49:10;8.43;;;2.97;;
57800;SDS011;43627;42.728;23.256;2022-10-17T13:51:44;2.80;;;1.65;;
57800;SDS011;43627;42.728;23.256;2022-10-17T13:54:17;4.10;;;1.80;;
57800;SDS011;43627;42.728;23.256;2022-10-17T13:57:16;8.43;;;1.70;;
57800;SDS011;43627;42.728;23.256;2022-10-17T13:59:48;5.38;;;1.73;;
57800;SDS011;43627;42.728;23.256;2022-10-17T14:02:26;5.55;;;2.25;;
57800;SDS011;43627;42.728;23.256;2022-10-17T14:05:07;10.13;;;2.40;;
57800;SDS011;43627;42.728;23.256;2022-10-17T14:07:53;4.97;;;2.15;;
57800;SDS011;43627;42.728;23.256;2022-10-17T14:10:39;5.07;;;2.15;;
57800;SDS011;43627;42.728;23.256;2022-10-17T14:13:13;6.78;;;2.47;;
57800;SDS011;43627;42.728;23.256;2022-10-17T14:15:46;4.25;;;2.30;;
57800;SDS011;43627;42.728;23.256;2022-10-17T14:18:17;6.50;;;2.72;;
57800;SDS011;43627;42.728;23.256;2022-10-17T14:20:48;5.85;;;2.15;;
57800;SDS011;43627;42.728;23.256;2022-10-17T14:23:38;3.78;;;2.08;;
57800;SDS011;43627;42.728;23.256;2022-10-17T14:26:11;6.22;;;1.77;;
57800;SDS011;43627;42.728;23.256;2022-10-17T14:28:44;5.10;;;2.00;;
57800;SDS011;43627;42.728;23.256;2022-10-17T14:31:21;9.90;;;2.40;;
57800;SDS011;43627;42.728;23.256;2022-10-17T14:33:51;4.30;;;1.88;;
57800;SDS011;43627;42.728;23.256;2022-10-17T14:36:19;7.65;;;2.22;;
57800;SDS011;43627;42.728;23.256;2022-10-17T14:38:56;4.65;;;2.40;;
57800;SDS011;43627;42.728;23.256;2022-10-17T14:41:27;10.18;;;2.67;;
57800;SDS011;43627;42.728;23.256;2022-10-17T14:44:15;5.32;;;2.42;;
57800;SDS011;43627;42.728;23.256;2022-10-17T14:46:45;8.18;;;2.60;;
57800;SDS011;43627;42.728;23.256;2022-10-17T14:49:17;7.07;;;2.45;;
57800;SDS011;43627;42.728;23.256;2022-10-17T14:54:42;7.85;;;2.38;;
57800;SDS011;43627;42.728;23.256;2022-10-17T14:59:56;17.70;;;3.27;;
57800;SDS011;43627;42.728;23.256;2022-10-17T15:02:24;11.02;;;2.70;;
57800;SDS011;43627;42.728;23.256;2022-10-17T15:04:52;6.93;;;2.78;;
57800;SDS011;43627;42.728;23.256;2022-10-17T15:07:20;6.32;;;2.40;;
57800;SDS011;43627;42.728;23.256;2022-10-17T15:09:48;7.07;;;2.50;;
57800;SDS011;43627;42.728;23.256;2022-10-17T15:12:17;6.13;;;2.55;;
57800;SDS011;43627;42.728;23.256;2022-10-17T15:14:46;5.00;;;2.50;;
57800;SDS011;43627;42.728;23.256;2022-10-17T15:17:15;8.45;;;2.63;;
57800;SDS011;43627;42.728;23.256;2022-10-17T15:19:46;6.95;;;2.80;;
57800;SDS011;43627;42.728;23.256;2022-10-17T15:22:13;3.85;;;2.40;;
57800;SDS011;43627;42.728;23.256;2022-10-17T15:24:41;4.68;;;2.63;;
57800;SDS011;43627;42.728;23.256;2022-10-17T15:27:12;9.90;;;3.40;;
57800;SDS011;43627;42.728;23.256;2022-10-17T15:29:41;5.03;;;2.50;;
57800;SDS011;43627;42.728;23.256;2022-10-17T15:32:08;6.28;;;3.58;;
57800;SDS011;43627;42.728;23.256;2022-10-17T15:34:36;7.82;;;4.93;;
57800;SDS011;43627;42.728;23.256;2022-10-17T15:37:03;9.63;;;3.30;;
57800;SDS011;43627;42.728;23.256;2022-10-17T15:39:32;9.35;;;4.35;;
57800;SDS011;43627;42.728;23.256;2022-10-17T15:41:59;9.23;;;3.05;;
57800;SDS011;43627;42.728;23.256;2022-10-17T15:44:26;6.25;;;2.85;;
57800;SDS011;43627;42.728;23.256;2022-10-17T15:46:53;9.85;;;2.83;;
57800;SDS011;43627;42.728;23.256;2022-10-17T15:49:21;15.80;;;3.67;;
57800;SDS011;43627;42.728;23.256;2022-10-17T15:51:49;5.97;;;2.72;;
57800;SDS011;43627;42.728;23.256;2022-10-17T15:54:20;5.78;;;2.72;;
57800;SDS011;43627;42.728;23.256;2022-10-17T15:56:49;14.18;;;3.35;;
57800;SDS011;43627;42.728;23.256;2022-10-17T16:01:48;6.60;;;2.58;;
57800;SDS011;43627;42.728;23.256;2022-10-17T16:04:15;11.75;;;3.97;;
57800;SDS011;43627;42.728;23.256;2022-10-17T16:06:43;9.18;;;4.05;;
57800;SDS011;43627;42.728;23.256;2022-10-17T16:09:10;8.98;;;3.53;;
57800;SDS011;43627;42.728;23.256;2022-10-17T16:11:39;9.00;;;3.90;;
57800;SDS011;43627;42.728;23.256;2022-10-17T16:14:12;10.90;;;5.13;;
57800;SDS011;43627;42.728;23.256;2022-10-17T16:16:40;12.13;;;6.03;;
57800;SDS011;43627;42.728;23.256;2022-10-17T16:19:07;20.90;;;6.85;;
57800;SDS011;43627;42.728;23.256;2022-10-17T16:21:35;15.88;;;7.55;;
57800;SDS011;43627;42.728;23.256;2022-10-17T16:24:05;16.73;;;7.55;;
57800;SDS011;43627;42.728;23.256;2022-10-17T16:26:32;14.40;;;6.32;;
57800;SDS011;43627;42.728;23.256;2022-10-17T16:28:59;13.95;;;6.85;;
57800;SDS011;43627;42.728;23.256;2022-10-17T16:31:35;12.52;;;5.47;;
57800;SDS011;43627;42.728;23.256;2022-10-17T16:34:05;10.60;;;5.35;;
57800;SDS011;43627;42.728;23.256;2022-10-17T16:36:34;24.23;;;9.15;;
57800;SDS011;43627;42.728;23.256;2022-10-17T16:39:01;12.35;;;5.05;;
57800;SDS011;43627;42.728;23.256;2022-10-17T16:41:29;10.98;;;6.55;;
57800;SDS011;43627;42.728;23.256;2022-10-17T16:43:59;12.90;;;6.15;;
57800;SDS011;43627;42.728;23.256;2022-10-17T16:46:27;10.48;;;6.57;;
57800;SDS011;43627;42.728;23.256;2022-10-17T16:48:56;18.80;;;10.07;;
57800;SDS011;43627;42.728;23.256;2022-10-17T16:51:23;13.63;;;7.50;;
57800;SDS011;43627;42.728;23.256;2022-10-17T16:53:51;17.30;;;5.70;;
57800;SDS011;43627;42.728;23.256;2022-10-17T16:56:22;15.13;;;6.57;;
57800;SDS011;43627;42.728;23.256;2022-10-17T16:58:50;14.45;;;6.93;;
57800;SDS011;43627;42.728;23.256;2022-10-17T17:01:19;17.58;;;6.90;;
57800;SDS011;43627;42.728;23.256;2022-10-17T17:03:49;18.65;;;6.70;;